sensor_id;sensor_type;location;lat;lon;timestamp;P1;durP1;ratioP1;P2;durP2;ratioP2
19733;SDS011;10018;51.230;7.860;2022-10-12T00:01:33;14.10;;;6.50;;
19733;SDS011;10018;51.230;7.860;2022-10-12T00:03:59;12.17;;;6.40;;
19733;SDS011;10018;51.230;7.860;2022-10-12T00:06:24;12.47;;;5.97;;
19733;SDS011;10018;51.230;7.860;2022-10-12T00:08:51;14.30;;;6.67;;
19733;SDS011;10018;51.230;7.860;2022-10-12T00:11:22;17.67;;;6.43;;
19733;SDS011;10018;51.230;7.860;2022-10-12T00:13:49;13.23;;;7.10;;
19733;SDS011;10018;51.230;7.860;2022-10-12T00:16:16;15.83;;;6.43;;
19733;SDS011;10018;51.230;7.860;2022-10-12T00:18:43;15.53;;;6.50;;
19733;SDS011;10018;51.230;7.860;2022-10-12T00:21:14;16.17;;;6.23;;
19733;SDS011;10018;51.230;7.860;2022-10-12T00:23:41;11.97;;;6.30;;
19733;SDS011;10018;51.230;7.860;2022-10-12T00:26:29;11.33;;;6.23;;
19733;SDS011;10018;51.230;7.860;2022-10-12T00:28:54;10.63;;;5.53;;
19733;SDS011;10018;51.230;7.860;2022-10-12T00:31:22;13.40;;;6.20;;
19733;SDS011;10018;51.230;7.860;2022-10-12T00:33:48;10.87;;;5.83;;
19733;SDS011;10018;51.230;7.860;2022-10-12T00:36:15;12.17;;;6.73;;
19733;SDS011;10018;51.230;7.860;2022-10-12T00:38:52;9.73;;;5.73;;
19733;SDS011;10018;51.230;7.860;2022-10-12T00:41:21;11.77;;;6.00;;
19733;SDS011;10018;51.230;7.860;2022-10-12T00:43:49;13.53;;;6.20;;
19733;SDS011;10018;51.230;7.860;2022-10-12T00:46:23;15.73;;;6.87;;
19733;SDS011;10018;51.230;7.860;2022-10-12T00:49:05;14.83;;;6.70;;
19733;SDS011;10018;51.230;7.860;2022-10-12T00:51:42;17.67;;;6.87;;
19733;SDS011;10018;51.230;7.860;2022-10-12T00:54:13;15.03;;;7.40;;
19733;SDS011;10018;51.230;7.860;2022-10-12T00:56:41;17.93;;;8.03;;
19733;SDS011;10018;51.230;7.860;2022-10-12T00:59:12;14.93;;;7.07;;
19733;SDS011;10018;51.230;7.860;2022-10-12T01:01:44;18.27;;;8.27;;
19733;SDS011;10018;51.230;7.860;2022-10-12T01:04:10;20.60;;;8.53;;
19733;SDS011;10018;51.230;7.860;2022-10-12T01:06:36;18.30;;;8.37;;
19733;SDS011;10018;51.230;7.860;2022-10-12T01:09:01;16.00;;;7.80;;
19733;SDS011;10018;51.230;7.860;2022-10-12T01:11:28;18.23;;;7.57;;
19733;SDS011;10018;51.230;7.860;2022-10-12T01:13:54;18.63;;;6.83;;
19733;SDS011;10018;51.230;7.860;2022-10-12T01:19:06;16.00;;;7.00;;
19733;SDS011;10018;51.230;7.860;2022-10-12T01:21:36;13.53;;;6.47;;
19733;SDS011;10018;51.230;7.860;2022-10-12T01:24:29;15.20;;;6.97;;
19733;SDS011;10018;51.230;7.860;2022-10-12T01:35:36;11.97;;;7.07;;
19733;SDS011;10018;51.230;7.860;2022-10-12T01:38:19;15.43;;;6.73;;
19733;SDS011;10018;51.230;7.860;2022-10-12T01:40:58;16.57;;;6.63;;
19733;SDS011;10018;51.230;7.860;2022-10-12T01:43:33;12.27;;;6.57;;
19733;SDS011;10018;51.230;7.860;2022-10-12T01:48:41;12.00;;;6.03;;
19733;SDS011;10018;51.230;7.860;2022-10-12T01:51:10;10.80;;;6.33;;
19733;SDS011;10018;51.230;7.860;2022-10-12T01:53:43;14.27;;;7.47;;
19733;SDS011;10018;51.230;7.860;2022-10-12T02:03:56;12.47;;;6.70;;
19733;SDS011;10018;51.230;7.860;2022-10-12T02:06:31;17.57;;;6.87;;
19733;SDS011;10018;51.230;7.860;2022-10-12T02:09:09;12.27;;;6.60;;
19733;SDS011;10018;51.230;7.860;2022-10-12T02:11:41;13.03;;;6.37;;
19733;SDS011;10018;51.230;7.860;2022-10-12T02:14:11;10.40;;;6.03;;
19733;SDS011;10018;51.230;7.860;2022-10-12T02:16:50;14.60;;;6.53;;
19733;SDS011;10018;51.230;7.860;2022-10-12T02:19:21;16.13;;;6.47;;
19733;SDS011;10018;51.230;7.860;2022-10-12T02:21:51;12.63;;;6.63;;
19733;SDS011;10018;51.230;7.860;2022-10-12T02:24:20;12.03;;;6.27;;
19733;SDS011;10018;51.230;7.860;2022-10-12T02:26:47;14.13;;;6.37;;
19733;SDS011;10018;51.230;7.860;2022-10-12T02:29:18;9.53;;;5.93;;
19733;SDS011;10018;51.230;7.860;2022-10-12T02:31:51;12.23;;;6.33;;
19733;SDS011;10018;51.230;7.860;2022-10-12T02:40:05;16.77;;;7.10;;
19733;SDS011;10018;51.230;7.860;2022-10-12T02:42:37;11.57;;;6.87;;
19733;SDS011;10018;51.230;7.860;2022-10-12T02:45:06;11.13;;;6.50;;
19733;SDS011;10018;51.230;7.860;2022-10-12T02:47:33;10.23;;;6.30;;
19733;SDS011;10018;51.230;7.860;2022-10-12T02:50:00;14.20;;;6.63;;
19733;SDS011;10018;51.230;7.860;2022-10-12T02:52:27;13.50;;;7.30;;
19733;SDS011;10018;51.230;7.860;2022-10-12T02:54:54;12.00;;;6.70;;
19733;SDS011;10018;51.230;7.860;2022-10-12T02:57:19;10.87;;;6.70;;
19733;SDS011;10018;51.230;7.860;2022-10-12T02:59:45;17.87;;;7.93;;
19733;SDS011;10018;51.230;7.860;2022-10-12T03:02:10;15.43;;;8.07;;
19733;SDS011;10018;51.230;7.860;2022-10-12T03:04:36;17.13;;;7.40;;
19733;SDS011;10018;51.230;7.860;2022-10-12T03:07:02;13.27;;;7.50;;
19733;SDS011;10018;51.230;7.860;2022-10-12T03:09:27;14.87;;;7.50;;
19733;SDS011;10018;51.230;7.860;2022-10-12T03:11:53;19.07;;;8.10;;
19733;SDS011;10018;51.230;7.860;2022-10-12T03:14:18;23.00;;;8.63;;
19733;SDS011;10018;51.230;7.860;2022-10-12T03:16:45;13.33;;;7.50;;
19733;SDS011;10018;51.230;7.860;2022-10-12T03:19:12;16.90;;;7.47;;
19733;SDS011;10018;51.230;7.860;2022-10-12T03:21:38;15.20;;;7.20;;
19733;SDS011;10018;51.230;7.860;2022-10-12T03:24:03;18.23;;;7.23;;
19733;SDS011;10018;51.230;7.860;2022-10-12T03:26:29;14.50;;;7.47;;
19733;SDS011;10018;51.230;7.860;2022-10-12T03:28:54;16.97;;;8.03;;
19733;SDS011;10018;51.230;7.860;2022-10-12T03:31:20;17.30;;;8.50;;
19733;SDS011;10018;51.230;7.860;2022-10-12T03:33:45;14.33;;;7.87;;
19733;SDS011;10018;51.230;7.860;2022-10-12T03:36:11;17.30;;;7.53;;
19733;SDS011;10018;51.230;7.860;2022-10-12T03:38:36;15.60;;;7.87;;
19733;SDS011;10018;51.230;7.860;2022-10-12T03:41:02;17.93;;;7.37;;
19733;SDS011;10018;51.230;7.860;2022-10-12T03:43:27;15.93;;;7.63;;
19733;SDS011;10018;51.230;7.860;2022-10-12T03:45:53;16.27;;;7.73;;
19733;SDS011;10018;51.230;7.860;2022-10-12T03:48:18;15.87;;;8.87;;
19733;SDS011;10018;51.230;7.860;2022-10-12T03:50:48;17.60;;;7.00;;
19733;SDS011;10018;51.230;7.860;2022-10-12T03:53:14;16.97;;;9.30;;
19733;SDS011;10018;51.230;7.860;2022-10-12T03:55:40;19.20;;;9.47;;
19733;SDS011;10018;51.230;7.860;2022-10-12T03:58:05;22.27;;;12.63;;
19733;SDS011;10018;51.230;7.860;2022-10-12T04:00:31;22.97;;;9.63;;
19733;SDS011;10018;51.230;7.860;2022-10-12T04:02:56;18.67;;;8.90;;
19733;SDS011;10018;51.230;7.860;2022-10-12T04:05:22;14.80;;;8.00;;
19733;SDS011;10018;51.230;7.860;2022-10-12T04:07:48;16.47;;;8.17;;
19733;SDS011;10018;51.230;7.860;2022-10-12T04:10:14;17.97;;;8.60;;
19733;SDS011;10018;51.230;7.860;2022-10-12T04:12:39;18.37;;;9.10;;
19733;SDS011;10018;51.230;7.860;2022-10-12T04:15:05;22.80;;;9.20;;
19733;SDS011;10018;51.230;7.860;2022-10-12T04:17:31;19.43;;;9.20;;
19733;SDS011;10018;51.230;7.860;2022-10-12T04:19:56;17.27;;;8.67;;
19733;SDS011;10018;51.230;7.860;2022-10-12T04:22:22;15.43;;;8.10;;
19733;SDS011;10018;51.230;7.860;2022-10-12T04:24:50;17.33;;;9.50;;
19733;SDS011;10018;51.230;7.860;2022-10-12T04:27:15;22.67;;;10.33;;
19733;SDS011;10018;51.230;7.860;2022-10-12T04:29:41;19.77;;;11.77;;
19733;SDS011;10018;51.230;7.860;2022-10-12T04:32:06;23.23;;;13.87;;
19733;SDS011;10018;51.230;7.860;2022-10-12T04:34:32;20.37;;;12.20;;
19733;SDS011;10018;51.230;7.860;2022-10-12T04:36:59;21.73;;;10.67;;
19733;SDS011;10018;51.230;7.860;2022-10-12T04:39:25;19.47;;;11.10;;
19733;SDS011;10018;51.230;7.860;2022-10-12T04:41:51;14.13;;;7.80;;
19733;SDS011;10018;51.230;7.860;2022-10-12T04:44:16;16.17;;;7.80;;
19733;SDS011;10018;51.230;7.860;2022-10-12T04:46:41;19.50;;;8.40;;
19733;SDS011;10018;51.230;7.860;2022-10-12T04:49:07;16.87;;;9.17;;
19733;SDS011;10018;51.230;7.860;2022-10-12T04:51:32;16.47;;;10.03;;
19733;SDS011;10018;51.230;7.860;2022-10-12T04:53:58;13.97;;;8.53;;
19733;SDS011;10018;51.230;7.860;2022-10-12T04:56:23;16.47;;;7.43;;
19733;SDS011;10018;51.230;7.860;2022-10-12T04:58:49;13.93;;;7.60;;
19733;SDS011;10018;51.230;7.860;2022-10-12T05:01:14;14.40;;;7.40;;
19733;SDS011;10018;51.230;7.860;2022-10-12T05:03:40;16.23;;;7.73;;
19733;SDS011;10018;51.230;7.860;2022-10-12T05:06:05;19.13;;;10.53;;
19733;SDS011;10018;51.230;7.860;2022-10-12T05:08:31;21.70;;;8.40;;
19733;SDS011;10018;51.230;7.860;2022-10-12T05:13:36;18.57;;;10.93;;
19733;SDS011;10018;51.230;7.860;2022-10-12T05:16:01;16.30;;;10.20;;
19733;SDS011;10018;51.230;7.860;2022-10-12T05:18:27;22.83;;;14.13;;
19733;SDS011;10018;51.230;7.860;2022-10-12T05:20:52;19.87;;;9.57;;
19733;SDS011;10018;51.230;7.860;2022-10-12T05:23:18;19.90;;;10.37;;
19733;SDS011;10018;51.230;7.860;2022-10-12T05:25:43;17.50;;;8.23;;
19733;SDS011;10018;51.230;7.860;2022-10-12T05:28:09;16.83;;;9.30;;
19733;SDS011;10018;51.230;7.860;2022-10-12T05:30:34;14.43;;;7.80;;
19733;SDS011;10018;51.230;7.860;2022-10-12T05:33:00;16.60;;;7.50;;
19733;SDS011;10018;51.230;7.860;2022-10-12T05:35:25;14.10;;;7.67;;
19733;SDS011;10018;51.230;7.860;2022-10-12T05:37:51;13.93;;;8.27;;
19733;SDS011;10018;51.230;7.860;2022-10-12T05:40:17;16.03;;;7.67;;
19733;SDS011;10018;51.230;7.860;2022-10-12T05:42:42;12.23;;;6.93;;
19733;SDS011;10018;51.230;7.860;2022-10-12T05:45:09;19.57;;;7.70;;
19733;SDS011;10018;51.230;7.860;2022-10-12T05:47:35;15.43;;;8.30;;
19733;SDS011;10018;51.230;7.860;2022-10-12T05:50:01;19.40;;;7.60;;
19733;SDS011;10018;51.230;7.860;2022-10-12T05:52:27;23.97;;;8.20;;
19733;SDS011;10018;51.230;7.860;2022-10-12T05:54:52;16.97;;;8.00;;
19733;SDS011;10018;51.230;7.860;2022-10-12T05:57:18;19.40;;;10.37;;
19733;SDS011;10018;51.230;7.860;2022-10-12T05:59:43;17.03;;;8.17;;
19733;SDS011;10018;51.230;7.860;2022-10-12T06:02:12;21.20;;;12.40;;
19733;SDS011;10018;51.230;7.860;2022-10-12T06:04:39;26.87;;;11.73;;
19733;SDS011;10018;51.230;7.860;2022-10-12T06:07:04;24.37;;;13.97;;
19733;SDS011;10018;51.230;7.860;2022-10-12T06:09:30;18.97;;;9.87;;
19733;SDS011;10018;51.230;7.860;2022-10-12T06:11:55;21.53;;;14.47;;
19733;SDS011;10018;51.230;7.860;2022-10-12T06:14:21;23.67;;;10.77;;
19733;SDS011;10018;51.230;7.860;2022-10-12T06:16:47;29.67;;;10.87;;
19733;SDS011;10018;51.230;7.860;2022-10-12T06:19:12;25.83;;;10.57;;
19733;SDS011;10018;51.230;7.860;2022-10-12T06:21:38;23.97;;;11.17;;
19733;SDS011;10018;51.230;7.860;2022-10-12T06:24:03;28.73;;;11.77;;
19733;SDS011;10018;51.230;7.860;2022-10-12T06:26:29;23.47;;;10.20;;
19733;SDS011;10018;51.230;7.860;2022-10-12T06:28:54;27.60;;;11.27;;
19733;SDS011;10018;51.230;7.860;2022-10-12T06:31:20;24.57;;;10.00;;
19733;SDS011;10018;51.230;7.860;2022-10-12T06:33:46;22.13;;;9.97;;
19733;SDS011;10018;51.230;7.860;2022-10-12T06:36:14;26.90;;;10.50;;
19733;SDS011;10018;51.230;7.860;2022-10-12T06:38:39;20.70;;;8.87;;
19733;SDS011;10018;51.230;7.860;2022-10-12T06:41:05;18.87;;;8.83;;
19733;SDS011;10018;51.230;7.860;2022-10-12T06:43:30;24.73;;;9.57;;
19733;SDS011;10018;51.230;7.860;2022-10-12T06:45:59;19.60;;;8.80;;
19733;SDS011;10018;51.230;7.860;2022-10-12T06:48:27;23.40;;;11.53;;
19733;SDS011;10018;51.230;7.860;2022-10-12T06:50:53;22.13;;;11.33;;
19733;SDS011;10018;51.230;7.860;2022-10-12T06:53:19;21.40;;;8.60;;
19733;SDS011;10018;51.230;7.860;2022-10-12T06:55:44;14.53;;;7.80;;
19733;SDS011;10018;51.230;7.860;2022-10-12T06:58:10;13.23;;;7.93;;
19733;SDS011;10018;51.230;7.860;2022-10-12T07:00:36;13.30;;;7.67;;
19733;SDS011;10018;51.230;7.860;2022-10-12T07:03:01;13.93;;;7.17;;
19733;SDS011;10018;51.230;7.860;2022-10-12T07:05:27;16.90;;;7.63;;
19733;SDS011;10018;51.230;7.860;2022-10-12T07:07:53;15.77;;;8.23;;
19733;SDS011;10018;51.230;7.860;2022-10-12T07:10:19;14.00;;;7.80;;
19733;SDS011;10018;51.230;7.860;2022-10-12T07:12:44;16.47;;;8.47;;
19733;SDS011;10018;51.230;7.860;2022-10-12T07:15:10;17.27;;;8.53;;
19733;SDS011;10018;51.230;7.860;2022-10-12T07:17:36;23.90;;;10.23;;
19733;SDS011;10018;51.230;7.860;2022-10-12T07:20:02;69.73;;;33.10;;
19733;SDS011;10018;51.230;7.860;2022-10-12T07:22:27;34.37;;;17.77;;
19733;SDS011;10018;51.230;7.860;2022-10-12T07:24:53;14.40;;;8.70;;
19733;SDS011;10018;51.230;7.860;2022-10-12T07:27:18;20.90;;;11.57;;
19733;SDS011;10018;51.230;7.860;2022-10-12T07:29:44;60.03;;;40.40;;
19733;SDS011;10018;51.230;7.860;2022-10-12T07:32:09;44.47;;;30.93;;
19733;SDS011;10018;51.230;7.860;2022-10-12T07:34:35;28.33;;;21.70;;
19733;SDS011;10018;51.230;7.860;2022-10-12T07:37:01;28.83;;;20.87;;
19733;SDS011;10018;51.230;7.860;2022-10-12T07:39:26;37.10;;;25.77;;
19733;SDS011;10018;51.230;7.860;2022-10-12T07:41:52;27.43;;;19.33;;
19733;SDS011;10018;51.230;7.860;2022-10-12T07:44:18;21.27;;;7.50;;
19733;SDS011;10018;51.230;7.860;2022-10-12T07:46:45;13.40;;;7.27;;
19733;SDS011;10018;51.230;7.860;2022-10-12T07:49:11;21.10;;;12.40;;
19733;SDS011;10018;51.230;7.860;2022-10-12T07:51:37;23.27;;;14.70;;
19733;SDS011;10018;51.230;7.860;2022-10-12T07:54:03;27.47;;;17.90;;
19733;SDS011;10018;51.230;7.860;2022-10-12T07:56:29;19.07;;;10.57;;
19733;SDS011;10018;51.230;7.860;2022-10-12T07:58:55;17.93;;;8.77;;
19733;SDS011;10018;51.230;7.860;2022-10-12T08:01:22;16.03;;;8.50;;
19733;SDS011;10018;51.230;7.860;2022-10-12T08:03:50;19.80;;;11.40;;
19733;SDS011;10018;51.230;7.860;2022-10-12T08:06:17;16.17;;;8.23;;
19733;SDS011;10018;51.230;7.860;2022-10-12T08:08:45;17.50;;;8.30;;
19733;SDS011;10018;51.230;7.860;2022-10-12T08:11:11;17.57;;;8.03;;
19733;SDS011;10018;51.230;7.860;2022-10-12T08:13:37;14.90;;;8.40;;
19733;SDS011;10018;51.230;7.860;2022-10-12T08:16:03;16.00;;;8.20;;
19733;SDS011;10018;51.230;7.860;2022-10-12T08:18:30;17.97;;;8.50;;
19733;SDS011;10018;51.230;7.860;2022-10-12T08:20:56;13.47;;;7.57;;
19733;SDS011;10018;51.230;7.860;2022-10-12T08:23:22;13.87;;;7.87;;
19733;SDS011;10018;51.230;7.860;2022-10-12T08:25:54;14.57;;;8.13;;
19733;SDS011;10018;51.230;7.860;2022-10-12T08:28:21;12.03;;;7.57;;
19733;SDS011;10018;51.230;7.860;2022-10-12T08:30:47;16.50;;;8.73;;
19733;SDS011;10018;51.230;7.860;2022-10-12T08:33:13;15.00;;;8.13;;
19733;SDS011;10018;51.230;7.860;2022-10-12T08:35:40;12.87;;;7.33;;
19733;SDS011;10018;51.230;7.860;2022-10-12T08:38:06;14.90;;;8.07;;
19733;SDS011;10018;51.230;7.860;2022-10-12T08:40:34;17.67;;;9.13;;
19733;SDS011;10018;51.230;7.860;2022-10-12T08:43:10;28.67;;;19.37;;
19733;SDS011;10018;51.230;7.860;2022-10-12T08:45:49;22.87;;;13.23;;
19733;SDS011;10018;51.230;7.860;2022-10-12T08:48:29;13.70;;;8.23;;
19733;SDS011;10018;51.230;7.860;2022-10-12T08:51:22;51.37;;;33.33;;
19733;SDS011;10018;51.230;7.860;2022-10-12T08:53:51;18.67;;;9.60;;
19733;SDS011;10018;51.230;7.860;2022-10-12T08:56:27;38.03;;;27.47;;
19733;SDS011;10018;51.230;7.860;2022-10-12T08:58:53;20.00;;;10.87;;
19733;SDS011;10018;51.230;7.860;2022-10-12T09:01:32;39.33;;;30.00;;
19733;SDS011;10018;51.230;7.860;2022-10-12T09:04:05;28.40;;;18.63;;
19733;SDS011;10018;51.230;7.860;2022-10-12T09:06:45;36.60;;;23.33;;
19733;SDS011;10018;51.230;7.860;2022-10-12T09:14:34;28.57;;;16.97;;
19733;SDS011;10018;51.230;7.860;2022-10-12T09:17:20;27.43;;;16.03;;
19733;SDS011;10018;51.230;7.860;2022-10-12T09:19:46;47.30;;;25.57;;
19733;SDS011;10018;51.230;7.860;2022-10-12T09:22:19;78.17;;;49.60;;
19733;SDS011;10018;51.230;7.860;2022-10-12T09:24:45;29.77;;;18.67;;
19733;SDS011;10018;51.230;7.860;2022-10-12T09:27:14;42.63;;;25.73;;
19733;SDS011;10018;51.230;7.860;2022-10-12T09:29:43;67.60;;;45.27;;
19733;SDS011;10018;51.230;7.860;2022-10-12T09:34:47;28.53;;;16.80;;
19733;SDS011;10018;51.230;7.860;2022-10-12T09:37:17;26.53;;;16.67;;
19733;SDS011;10018;51.230;7.860;2022-10-12T09:39:47;13.80;;;8.40;;
19733;SDS011;10018;51.230;7.860;2022-10-12T09:42:13;31.90;;;14.87;;
19733;SDS011;10018;51.230;7.860;2022-10-12T09:44:45;38.87;;;17.33;;
19733;SDS011;10018;51.230;7.860;2022-10-12T09:49:45;21.90;;;8.50;;
19733;SDS011;10018;51.230;7.860;2022-10-12T09:52:16;17.67;;;7.60;;
19733;SDS011;10018;51.230;7.860;2022-10-12T09:54:45;18.60;;;7.80;;
19733;SDS011;10018;51.230;7.860;2022-10-12T09:57:20;13.93;;;5.73;;
19733;SDS011;10018;51.230;7.860;2022-10-12T09:59:55;27.63;;;12.93;;
19733;SDS011;10018;51.230;7.860;2022-10-12T10:02:22;17.07;;;8.90;;
19733;SDS011;10018;51.230;7.860;2022-10-12T10:04:50;24.30;;;14.17;;
19733;SDS011;10018;51.230;7.860;2022-10-12T10:12:54;10.23;;;4.27;;
19733;SDS011;10018;51.230;7.860;2022-10-12T10:18:04;13.23;;;4.50;;
19733;SDS011;10018;51.230;7.860;2022-10-12T10:20:48;12.90;;;4.80;;
19733;SDS011;10018;51.230;7.860;2022-10-12T10:23:24;12.20;;;5.03;;
19733;SDS011;10018;51.230;7.860;2022-10-12T10:26:01;11.57;;;5.03;;
19733;SDS011;10018;51.230;7.860;2022-10-12T10:28:29;10.43;;;4.97;;
19733;SDS011;10018;51.230;7.860;2022-10-12T10:33:30;9.40;;;5.00;;
19733;SDS011;10018;51.230;7.860;2022-10-12T10:38:52;11.30;;;4.03;;
19733;SDS011;10018;51.230;7.860;2022-10-12T10:41:29;12.07;;;4.40;;
19733;SDS011;10018;51.230;7.860;2022-10-12T10:43:55;10.40;;;4.43;;
19733;SDS011;10018;51.230;7.860;2022-10-12T10:46:22;9.60;;;4.50;;
19733;SDS011;10018;51.230;7.860;2022-10-12T10:48:58;9.63;;;4.40;;
19733;SDS011;10018;51.230;7.860;2022-10-12T10:51:40;13.93;;;5.00;;
19733;SDS011;10018;51.230;7.860;2022-10-12T10:54:15;8.93;;;4.83;;
19733;SDS011;10018;51.230;7.860;2022-10-12T10:56:50;11.93;;;4.20;;
19733;SDS011;10018;51.230;7.860;2022-10-12T11:02:13;9.60;;;3.40;;
19733;SDS011;10018;51.230;7.860;2022-10-12T11:04:55;10.23;;;3.27;;
19733;SDS011;10018;51.230;7.860;2022-10-12T11:10:01;10.67;;;3.83;;
19733;SDS011;10018;51.230;7.860;2022-10-12T11:12:34;9.27;;;2.87;;
19733;SDS011;10018;51.230;7.860;2022-10-12T11:15:12;6.77;;;3.10;;
19733;SDS011;10018;51.230;7.860;2022-10-12T11:17:45;8.67;;;3.23;;
19733;SDS011;10018;51.230;7.860;2022-10-12T11:20:33;8.33;;;3.60;;
19733;SDS011;10018;51.230;7.860;2022-10-12T11:23:12;6.07;;;2.90;;
19733;SDS011;10018;51.230;7.860;2022-10-12T11:25:40;9.07;;;3.00;;
19733;SDS011;10018;51.230;7.860;2022-10-12T11:28:30;8.03;;;2.90;;
19733;SDS011;10018;51.230;7.860;2022-10-12T11:30:57;8.47;;;2.90;;
19733;SDS011;10018;51.230;7.860;2022-10-12T11:33:25;8.67;;;3.50;;
19733;SDS011;10018;51.230;7.860;2022-10-12T11:35:54;12.07;;;5.17;;
19733;SDS011;10018;51.230;7.860;2022-10-12T11:38:25;11.43;;;4.10;;
19733;SDS011;10018;51.230;7.860;2022-10-12T11:40:56;10.10;;;3.10;;
19733;SDS011;10018;51.230;7.860;2022-10-12T11:43:33;8.77;;;3.23;;
19733;SDS011;10018;51.230;7.860;2022-10-12T11:46:04;10.00;;;3.57;;
19733;SDS011;10018;51.230;7.860;2022-10-12T11:48:35;9.83;;;3.00;;
19733;SDS011;10018;51.230;7.860;2022-10-12T11:51:12;6.37;;;2.90;;
19733;SDS011;10018;51.230;7.860;2022-10-12T11:58:49;6.03;;;2.83;;
19733;SDS011;10018;51.230;7.860;2022-10-12T12:04:25;10.77;;;3.83;;
19733;SDS011;10018;51.230;7.860;2022-10-12T12:06:57;11.80;;;5.07;;
19733;SDS011;10018;51.230;7.860;2022-10-12T12:09:32;11.50;;;3.47;;
19733;SDS011;10018;51.230;7.860;2022-10-12T12:12:10;11.27;;;3.83;;
19733;SDS011;10018;51.230;7.860;2022-10-12T12:14:44;9.37;;;3.40;;
19733;SDS011;10018;51.230;7.860;2022-10-12T12:19:38;12.40;;;3.90;;
19733;SDS011;10018;51.230;7.860;2022-10-12T12:27:33;9.73;;;4.20;;
19733;SDS011;10018;51.230;7.860;2022-10-12T12:30:19;10.80;;;5.30;;
19733;SDS011;10018;51.230;7.860;2022-10-12T12:33:23;10.27;;;4.63;;
19733;SDS011;10018;51.230;7.860;2022-10-12T12:35:39;15.50;;;4.17;;
19733;SDS011;10018;51.230;7.860;2022-10-12T12:38:26;6.47;;;3.43;;
19733;SDS011;10018;51.230;7.860;2022-10-12T12:40:56;6.57;;;3.10;;
19733;SDS011;10018;51.230;7.860;2022-10-12T12:43:50;7.43;;;3.47;;
19733;SDS011;10018;51.230;7.860;2022-10-12T12:46:21;10.33;;;3.33;;
19733;SDS011;10018;51.230;7.860;2022-10-12T12:53:51;11.10;;;4.07;;
19733;SDS011;10018;51.230;7.860;2022-10-12T12:56:39;9.80;;;3.50;;
19733;SDS011;10018;51.230;7.860;2022-10-12T13:02:14;7.63;;;4.00;;
19733;SDS011;10018;51.230;7.860;2022-10-12T13:05:12;8.93;;;3.67;;
19733;SDS011;10018;51.230;7.860;2022-10-12T13:11:02;9.87;;;5.20;;
19733;SDS011;10018;51.230;7.860;2022-10-12T13:19:35;11.73;;;3.90;;
19733;SDS011;10018;51.230;7.860;2022-10-12T13:22:08;13.03;;;3.33;;
19733;SDS011;10018;51.230;7.860;2022-10-12T13:24:47;11.20;;;4.10;;
19733;SDS011;10018;51.230;7.860;2022-10-12T13:27:19;7.63;;;3.50;;
19733;SDS011;10018;51.230;7.860;2022-10-12T13:29:51;12.50;;;4.10;;
19733;SDS011;10018;51.230;7.860;2022-10-12T13:35:13;9.43;;;3.70;;
19733;SDS011;10018;51.230;7.860;2022-10-12T13:37:46;9.07;;;3.63;;
19733;SDS011;10018;51.230;7.860;2022-10-12T13:40:30;10.50;;;3.70;;
19733;SDS011;10018;51.230;7.860;2022-10-12T13:43:19;11.90;;;4.27;;
19733;SDS011;10018;51.230;7.860;2022-10-12T13:45:53;10.27;;;4.20;;
19733;SDS011;10018;51.230;7.860;2022-10-12T13:48:20;11.27;;;3.90;;
19733;SDS011;10018;51.230;7.860;2022-10-12T13:50:54;12.17;;;4.20;;
19733;SDS011;10018;51.230;7.860;2022-10-12T13:53:23;12.20;;;4.30;;
19733;SDS011;10018;51.230;7.860;2022-10-12T13:55:56;11.97;;;6.47;;
19733;SDS011;10018;51.230;7.860;2022-10-12T13:58:29;16.57;;;6.20;;
19733;SDS011;10018;51.230;7.860;2022-10-12T14:00:58;8.90;;;4.23;;
19733;SDS011;10018;51.230;7.860;2022-10-12T14:03:26;12.83;;;4.27;;
19733;SDS011;10018;51.230;7.860;2022-10-12T14:05:58;11.73;;;4.10;;
19733;SDS011;10018;51.230;7.860;2022-10-12T14:08:25;17.33;;;9.27;;
19733;SDS011;10018;51.230;7.860;2022-10-12T14:10:52;13.90;;;5.13;;
19733;SDS011;10018;51.230;7.860;2022-10-12T14:13:23;8.57;;;4.03;;
19733;SDS011;10018;51.230;7.860;2022-10-12T14:15:54;13.97;;;4.50;;
19733;SDS011;10018;51.230;7.860;2022-10-12T14:21:11;13.77;;;4.33;;
19733;SDS011;10018;51.230;7.860;2022-10-12T14:23:44;9.13;;;4.07;;
19733;SDS011;10018;51.230;7.860;2022-10-12T14:28:56;9.93;;;4.70;;
19733;SDS011;10018;51.230;7.860;2022-10-12T14:34:23;9.77;;;3.70;;
19733;SDS011;10018;51.230;7.860;2022-10-12T14:39:39;7.07;;;3.37;;
19733;SDS011;10018;51.230;7.860;2022-10-12T14:44:50;9.60;;;4.00;;
19733;SDS011;10018;51.230;7.860;2022-10-12T14:47:23;18.17;;;9.20;;
19733;SDS011;10018;51.230;7.860;2022-10-12T14:49:52;9.63;;;3.77;;
19733;SDS011;10018;51.230;7.860;2022-10-12T14:52:19;18.73;;;10.83;;
19733;SDS011;10018;51.230;7.860;2022-10-12T14:54:57;15.03;;;8.07;;
19733;SDS011;10018;51.230;7.860;2022-10-12T14:57:24;10.87;;;3.87;;
19733;SDS011;10018;51.230;7.860;2022-10-12T14:59:52;11.13;;;3.60;;
19733;SDS011;10018;51.230;7.860;2022-10-12T15:02:18;11.73;;;3.87;;
19733;SDS011;10018;51.230;7.860;2022-10-12T15:04:51;15.33;;;8.53;;
19733;SDS011;10018;51.230;7.860;2022-10-12T15:07:18;9.50;;;4.20;;
19733;SDS011;10018;51.230;7.860;2022-10-12T15:09:46;10.23;;;3.93;;
19733;SDS011;10018;51.230;7.860;2022-10-12T15:12:13;11.60;;;6.73;;
19733;SDS011;10018;51.230;7.860;2022-10-12T15:14:41;12.20;;;5.27;;
19733;SDS011;10018;51.230;7.860;2022-10-12T15:17:09;12.77;;;6.33;;
19733;SDS011;10018;51.230;7.860;2022-10-12T15:19:35;9.80;;;3.67;;
19733;SDS011;10018;51.230;7.860;2022-10-12T15:22:01;10.30;;;3.87;;
19733;SDS011;10018;51.230;7.860;2022-10-12T15:24:26;8.50;;;3.67;;
19733;SDS011;10018;51.230;7.860;2022-10-12T15:26:52;12.80;;;3.90;;
19733;SDS011;10018;51.230;7.860;2022-10-12T15:29:17;10.83;;;4.27;;
19733;SDS011;10018;51.230;7.860;2022-10-12T15:31:43;13.60;;;5.90;;
19733;SDS011;10018;51.230;7.860;2022-10-12T15:34:10;11.23;;;4.50;;
19733;SDS011;10018;51.230;7.860;2022-10-12T15:36:37;9.47;;;4.03;;
19733;SDS011;10018;51.230;7.860;2022-10-12T15:39:02;11.00;;;3.83;;
19733;SDS011;10018;51.230;7.860;2022-10-12T15:41:28;8.67;;;3.80;;
19733;SDS011;10018;51.230;7.860;2022-10-12T15:43:53;12.37;;;7.20;;
19733;SDS011;10018;51.230;7.860;2022-10-12T15:46:19;8.13;;;4.17;;
19733;SDS011;10018;51.230;7.860;2022-10-12T15:48:44;8.30;;;4.37;;
19733;SDS011;10018;51.230;7.860;2022-10-12T15:51:20;12.70;;;4.63;;
19733;SDS011;10018;51.230;7.860;2022-10-12T15:53:48;16.03;;;4.83;;
19733;SDS011;10018;51.230;7.860;2022-10-12T15:56:14;9.63;;;5.07;;
19733;SDS011;10018;51.230;7.860;2022-10-12T15:58:41;16.43;;;9.37;;
19733;SDS011;10018;51.230;7.860;2022-10-12T16:01:09;17.53;;;9.40;;
19733;SDS011;10018;51.230;7.860;2022-10-12T16:03:37;22.93;;;14.13;;
19733;SDS011;10018;51.230;7.860;2022-10-12T16:06:02;17.07;;;10.97;;
19733;SDS011;10018;51.230;7.860;2022-10-12T16:08:28;17.47;;;8.83;;
19733;SDS011;10018;51.230;7.860;2022-10-12T16:10:54;14.80;;;6.23;;
19733;SDS011;10018;51.230;7.860;2022-10-12T16:13:19;9.60;;;6.30;;
19733;SDS011;10018;51.230;7.860;2022-10-12T16:15:45;8.23;;;5.27;;
19733;SDS011;10018;51.230;7.860;2022-10-12T16:18:11;9.77;;;4.80;;
19733;SDS011;10018;51.230;7.860;2022-10-12T16:20:39;8.37;;;5.07;;
19733;SDS011;10018;51.230;7.860;2022-10-12T16:23:07;11.77;;;6.10;;
19733;SDS011;10018;51.230;7.860;2022-10-12T16:25:38;12.47;;;6.77;;
19733;SDS011;10018;51.230;7.860;2022-10-12T16:28:04;11.33;;;6.33;;
19733;SDS011;10018;51.230;7.860;2022-10-12T16:30:30;12.17;;;6.03;;
19733;SDS011;10018;51.230;7.860;2022-10-12T16:32:55;10.83;;;6.30;;
19733;SDS011;10018;51.230;7.860;2022-10-12T16:35:21;13.10;;;5.73;;